Time;durP1;ratioP1;P1;durP2;ratioP2;P2;SDS_P1;SDS_P2;PMS_P1;PMS_P2;Temp;Humidity;BMP_temperature;BMP_pressure;BME280_temperature;BME280_humidity;BME280_pressure;Samples;Min_cycle;Max_cycle;Signal;HPM_P1;HPM_P2
2022/12/06 00:01:13;;;;;;;10.87;7.10;;;;;;;;;;5003527;28;20173;-82
2022/12/06 00:03:40;;;;;;;11.37;7.07;;;;;;;;;;5016007;28;20208;-80
2022/12/06 00:06:08;;;;;;;9.77;7.33;;;;;;;;;;5016085;28;20177;-80
2022/12/06 00:08:34;;;;;;;10.97;7.00;;;;;;;;;;5033705;28;20180;-81
2022/12/06 00:11:07;;;;;;;9.40;6.90;;;;;;;;;;5015383;28;20185;-81
2022/12/06 00:13:34;;;;;;;11.27;7.03;;;;;;;;;;5013603;28;20264;-81
2022/12/06 00:16:04;;;;;;;10.57;6.80;;;;;;;;;;5014634;28;20185;-81
2022/12/06 00:18:30;;;;;;;9.67;6.70;;;;;;;;;;5017849;28;20188;-81
2022/12/06 00:20:56;;;;;;;8.83;6.63;;;;;;;;;;5000575;28;20181;-82
2022/12/06 00:23:22;;;;;;;8.80;6.60;;;;;;;;;;4983994;28;20285;-82
2022/12/06 00:25:49;;;;;;;10.57;7.17;;;;;;;;;;4975258;28;20241;-82
2022/12/06 00:28:15;;;;;;;10.57;6.90;;;;;;;;;;4978563;28;20175;-82
2022/12/06 00:30:41;;;;;;;7.93;6.80;;;;;;;;;;4977535;28;20190;-81
2022/12/06 00:33:07;;;;;;;10.93;7.00;;;;;;;;;;4977583;28;20191;-81
2022/12/06 00:35:33;;;;;;;9.53;7.03;;;;;;;;;;4993614;28;20281;-82
2022/12/06 00:37:59;;;;;;;11.13;6.83;;;;;;;;;;4980646;28;20182;-82
2022/12/06 00:40:25;;;;;;;10.40;6.83;;;;;;;;;;4992974;28;20190;-82
2022/12/06 00:42:51;;;;;;;11.53;6.97;;;;;;;;;;4972570;28;20233;-82
2022/12/06 00:45:17;;;;;;;9.50;6.10;;;;;;;;;;4980449;28;20204;-82
2022/12/06 00:47:43;;;;;;;7.57;5.83;;;;;;;;;;4986756;28;20193;-81
2022/12/06 00:50:09;;;;;;;9.10;7.10;;;;;;;;;;4988665;28;20194;-82
2022/12/06 00:52:35;;;;;;;9.13;6.70;;;;;;;;;;4984158;28;20198;-82
2022/12/06 00:55:02;;;;;;;7.83;6.37;;;;;;;;;;4963604;28;20195;-80
2022/12/06 00:57:28;;;;;;;8.57;6.43;;;;;;;;;;4985353;28;20182;-80
2022/12/06 00:59:54;;;;;;;7.67;6.27;;;;;;;;;;4983449;28;20273;-80
2022/12/06 01:02:20;;;;;;;8.63;6.50;;;;;;;;;;4978591;28;20249;-80
2022/12/06 01:04:46;;;;;;;9.63;6.23;;;;;;;;;;4998888;28;20191;-80
2022/12/06 01:07:12;;;;;;;9.10;6.93;;;;;;;;;;4961750;28;20193;-81
2022/12/06 01:09:38;;;;;;;9.60;7.03;;;;;;;;;;4966029;28;20186;-81
2022/12/06 01:12:04;;;;;;;8.60;7.03;;;;;;;;;;4975764;28;20194;-81
2022/12/06 01:14:30;;;;;;;8.83;7.00;;;;;;;;;;4994971;28;20200;-82
2022/12/06 01:16:56;;;;;;;9.83;6.83;;;;;;;;;;4980962;28;20273;-82
2022/12/06 01:19:22;;;;;;;8.30;6.67;;;;;;;;;;4992839;28;20239;-82
2022/12/06 01:21:48;;;;;;;10.13;7.27;;;;;;;;;;4965793;28;20218;-81
2022/12/06 01:24:14;;;;;;;8.77;6.67;;;;;;;;;;4976120;28;20187;-81
2022/12/06 01:26:41;;;;;;;8.57;7.23;;;;;;;;;;5001004;28;20290;-81
2022/12/06 01:29:07;;;;;;;12.73;7.17;;;;;;;;;;5013147;28;20177;-80
2022/12/06 01:31:33;;;;;;;9.67;7.27;;;;;;;;;;5010146;28;20186;-81
2022/12/06 01:33:59;;;;;;;9.20;7.43;;;;;;;;;;5012907;28;20189;-81
2022/12/06 01:36:25;;;;;;;9.77;7.30;;;;;;;;;;5014768;28;20177;-81
2022/12/06 01:38:56;;;;;;;9.47;7.03;;;;;;;;;;5006656;28;20206;-81
2022/12/06 01:41:23;;;;;;;10.37;7.10;;;;;;;;;;5013692;28;20177;-81
2022/12/06 01:43:50;;;;;;;11.67;7.80;;;;;;;;;;5015218;28;20181;-80
2022/12/06 01:46:16;;;;;;;13.83;7.50;;;;;;;;;;5011872;28;20180;-80
2022/12/06 01:48:42;;;;;;;11.20;7.90;;;;;;;;;;5011901;28;20189;-80
2022/12/06 01:51:10;;;;;;;11.37;8.03;;;;;;;;;;5013759;28;20216;-80
2022/12/06 01:53:36;;;;;;;10.07;7.73;;;;;;;;;;5014713;28;20193;-81
2022/12/06 01:56:03;;;;;;;12.30;8.47;;;;;;;;;;5013410;28;20193;-81
2022/12/06 01:58:31;;;;;;;11.37;7.83;;;;;;;;;;5014055;28;20197;-81
2022/12/06 02:00:57;;;;;;;12.87;7.87;;;;;;;;;;5013862;28;20228;-81
2022/12/06 02:03:25;;;;;;;10.70;7.87;;;;;;;;;;4996484;28;20236;-82
2022/12/06 02:05:51;;;;;;;12.80;8.10;;;;;;;;;;5012734;28;20212;-82
2022/12/06 02:08:18;;;;;;;12.13;7.50;;;;;;;;;;5011394;28;20223;-83
2022/12/06 02:10:44;;;;;;;10.70;7.33;;;;;;;;;;5011944;28;20180;-83
2022/12/06 02:13:10;;;;;;;10.53;8.03;;;;;;;;;;4997918;28;20185;-82
2022/12/06 02:15:41;;;;;;;15.77;8.60;;;;;;;;;;5022441;23;20284;-83
2022/12/06 02:18:12;;;;;;;12.97;7.90;;;;;;;;;;4994006;28;20186;-81
2022/12/06 02:20:44;;;;;;;11.07;7.57;;;;;;;;;;4993392;28;20189;-81
2022/12/06 02:23:13;;;;;;;9.93;7.83;;;;;;;;;;4993718;28;20293;-81
2022/12/06 02:25:49;;;;;;;12.07;7.37;;;;;;;;;;4994156;28;20169;-82
2022/12/06 02:28:20;;;;;;;11.80;7.63;;;;;;;;;;5009078;28;20173;-81
2022/12/06 02:31:05;;;;;;;11.33;7.80;;;;;;;;;;4992223;28;20173;-81
2022/12/06 02:33:49;;;;;;;13.90;7.63;;;;;;;;;;4992012;28;20213;-84
2022/12/06 02:36:18;;;;;;;12.40;8.10;;;;;;;;;;4991073;28;20193;-85
2022/12/06 02:38:50;;;;;;;14.73;8.00;;;;;;;;;;4992895;28;20217;-85
2022/12/06 02:41:31;;;;;;;10.87;7.97;;;;;;;;;;4993577;28;20193;-85
2022/12/06 02:43:59;;;;;;;11.10;7.57;;;;;;;;;;4992775;28;20218;-85
2022/12/06 02:46:28;;;;;;;13.57;7.77;;;;;;;;;;4993807;28;21041;-85
2022/12/06 02:48:56;;;;;;;11.40;7.93;;;;;;;;;;4994414;28;20193;-85
2022/12/06 02:51:22;;;;;;;13.93;7.87;;;;;;;;;;4994308;28;20209;-80
2022/12/06 02:53:50;;;;;;;13.80;7.77;;;;;;;;;;4993149;28;20189;-80
2022/12/06 02:56:16;;;;;;;13.50;8.27;;;;;;;;;;4992480;28;20193;-79
2022/12/06 02:58:43;;;;;;;12.60;8.93;;;;;;;;;;4993584;28;20193;-79
2022/12/06 03:01:14;;;;;;;15.07;8.70;;;;;;;;;;4991836;28;20186;-79
2022/12/06 03:03:40;;;;;;;12.33;8.80;;;;;;;;;;4992730;28;20205;-79
2022/12/06 03:06:25;;;;;;;14.87;9.37;;;;;;;;;;4993712;28;20189;-79
2022/12/06 03:09:10;;;;;;;14.33;8.47;;;;;;;;;;4991741;28;20284;-85
2022/12/06 03:11:49;;;;;;;15.07;8.60;;;;;;;;;;4990905;28;20209;-86
2022/12/06 03:14:19;;;;;;;15.53;8.33;;;;;;;;;;4994606;28;20174;-85
2022/12/06 03:16:50;;;;;;;17.77;8.50;;;;;;;;;;4992628;28;20253;-85
2022/12/06 03:19:24;;;;;;;14.30;8.03;;;;;;;;;;4992833;28;20273;-85
2022/12/06 03:21:50;;;;;;;14.40;8.03;;;;;;;;;;4991280;28;20225;-85
2022/12/06 03:24:16;;;;;;;15.97;8.00;;;;;;;;;;4992400;28;20186;-85
2022/12/06 03:26:46;;;;;;;15.67;8.47;;;;;;;;;;4992345;28;20189;-85
2022/12/06 03:29:14;;;;;;;14.53;8.50;;;;;;;;;;4991800;28;20247;-85
2022/12/06 03:31:41;;;;;;;15.73;8.10;;;;;;;;;;4992955;28;21329;-85
2022/12/06 03:34:14;;;;;;;17.00;8.50;;;;;;;;;;4989705;28;20190;-85
2022/12/06 03:36:41;;;;;;;22.47;8.67;;;;;;;;;;4992387;28;20265;-85
2022/12/06 03:39:07;;;;;;;14.53;8.07;;;;;;;;;;4994079;28;20218;-85
2022/12/06 03:41:43;;;;;;;17.77;8.53;;;;;;;;;;4976517;28;20277;-79
2022/12/06 03:44:09;;;;;;;16.20;8.23;;;;;;;;;;4992971;28;20189;-80
2022/12/06 03:46:37;;;;;;;11.67;7.87;;;;;;;;;;4976373;28;20182;-79
2022/12/06 03:49:09;;;;;;;19.27;8.67;;;;;;;;;;4992290;28;20205;-80
2022/12/06 03:51:37;;;;;;;18.13;8.33;;;;;;;;;;4989716;28;20170;-79
2022/12/06 03:54:04;;;;;;;17.23;8.70;;;;;;;;;;4991541;28;20186;-80
2022/12/06 03:56:31;;;;;;;16.23;8.00;;;;;;;;;;4992949;28;20216;-79
2022/12/06 03:58:57;;;;;;;16.93;9.00;;;;;;;;;;4991631;28;20190;-81
2022/12/06 04:01:23;;;;;;;18.47;9.20;;;;;;;;;;4995006;28;20186;-80
2022/12/06 04:03:49;;;;;;;18.33;8.33;;;;;;;;;;4993396;28;20222;-80
2022/12/06 04:06:15;;;;;;;15.30;8.80;;;;;;;;;;4991228;28;20208;-81
2022/12/06 04:08:41;;;;;;;20.33;9.00;;;;;;;;;;4992342;28;20178;-81
2022/12/06 04:11:07;;;;;;;18.33;8.23;;;;;;;;;;4977122;28;20186;-81
2022/12/06 04:13:34;;;;;;;18.37;9.00;;;;;;;;;;4972319;28;20198;-85
2022/12/06 04:16:01;;;;;;;18.17;8.97;;;;;;;;;;4976477;28;20229;-85
2022/12/06 04:18:27;;;;;;;18.57;8.30;;;;;;;;;;4992932;28;20307;-85
2022/12/06 04:23:50;;;;;;;16.33;8.87;;;;;;;;;;4992488;28;20332;-85
2022/12/06 04:26:18;;;;;;;17.43;8.30;;;;;;;;;;4992473;28;20193;-84
2022/12/06 04:39:42;;;;;;;14.80;8.00;;;;;;;;;;4993436;28;20247;-84
2022/12/06 04:45:09;;;;;;;15.80;8.47;;;;;;;;;;4941404;29;20199;-84
2022/12/06 04:47:35;;;;;;;15.50;7.90;;;;;;;;;;4963528;28;20190;-84
2022/12/06 04:50:01;;;;;;;14.50;8.60;;;;;;;;;;4976176;28;20241;-85
2022/12/06 04:52:27;;;;;;;10.93;7.27;;;;;;;;;;4992650;28;20245;-85
2022/12/06 04:54:53;;;;;;;14.43;8.40;;;;;;;;;;4976843;28;20193;-85
2022/12/06 04:57:19;;;;;;;14.37;8.23;;;;;;;;;;4991607;28;20189;-84
2022/12/06 04:59:45;;;;;;;16.07;8.53;;;;;;;;;;4974731;28;20194;-85
2022/12/06 05:02:13;;;;;;;15.17;8.13;;;;;;;;;;4976449;28;20206;-85
2022/12/06 05:04:39;;;;;;;14.00;8.10;;;;;;;;;;4996742;28;20209;-81
2022/12/06 05:07:05;;;;;;;16.97;8.10;;;;;;;;;;4996427;28;20182;-82
2022/12/06 05:09:31;;;;;;;12.93;7.60;;;;;;;;;;4981045;28;20201;-81
2022/12/06 05:11:57;;;;;;;14.93;8.10;;;;;;;;;;4996337;28;20182;-82
2022/12/06 05:14:23;;;;;;;11.90;7.37;;;;;;;;;;4996523;28;20182;-82
2022/12/06 05:16:49;;;;;;;12.20;7.57;;;;;;;;;;4995522;28;20229;-81
2022/12/06 05:19:15;;;;;;;13.53;7.50;;;;;;;;;;4996248;28;20252;-82
2022/12/06 05:21:41;;;;;;;16.07;8.00;;;;;;;;;;4994753;28;20216;-79
2022/12/06 05:24:07;;;;;;;15.47;7.43;;;;;;;;;;4982611;28;20213;-79
2022/12/06 05:26:33;;;;;;;13.73;8.30;;;;;;;;;;4998595;28;20185;-80
2022/12/06 05:28:59;;;;;;;13.73;7.33;;;;;;;;;;4987505;28;20186;-80
2022/12/06 05:31:25;;;;;;;13.27;6.97;;;;;;;;;;4978186;28;20182;-80
2022/12/06 05:33:52;;;;;;;14.47;7.20;;;;;;;;;;4993893;28;20186;-80
2022/12/06 05:36:19;;;;;;;16.07;7.33;;;;;;;;;;4997030;28;20210;-80
2022/12/06 05:38:46;;;;;;;13.13;6.77;;;;;;;;;;4994842;28;20178;-85
2022/12/06 05:41:12;;;;;;;12.87;7.57;;;;;;;;;;4995934;28;20284;-85
2022/12/06 05:43:38;;;;;;;15.47;7.13;;;;;;;;;;4996705;28;20202;-85
2022/12/06 05:46:04;;;;;;;14.60;7.23;;;;;;;;;;4979427;28;20187;-84
2022/12/06 05:48:30;;;;;;;12.13;7.10;;;;;;;;;;4979468;28;20186;-85
2022/12/06 05:50:56;;;;;;;11.50;7.13;;;;;;;;;;4995670;28;20189;-85
2022/12/06 05:53:22;;;;;;;12.63;7.37;;;;;;;;;;4973910;28;20209;-85
2022/12/06 05:55:48;;;;;;;13.20;6.60;;;;;;;;;;4995121;28;20182;-85
2022/12/06 05:58:14;;;;;;;11.53;7.70;;;;;;;;;;4995325;28;20324;-84
2022/12/06 06:00:41;;;;;;;12.73;7.00;;;;;;;;;;4995103;28;20178;-85
2022/12/06 06:03:07;;;;;;;12.73;6.83;;;;;;;;;;4995240;28;20225;-85
2022/12/06 06:05:33;;;;;;;13.87;7.37;;;;;;;;;;4992362;28;20174;-85
2022/12/06 06:07:59;;;;;;;16.80;7.47;;;;;;;;;;4977350;28;20196;-85
2022/12/06 06:10:25;;;;;;;12.67;6.83;;;;;;;;;;4994532;28;20194;-85
2022/12/06 06:12:52;;;;;;;11.87;6.83;;;;;;;;;;4995148;28;20185;-85
2022/12/06 06:15:18;;;;;;;12.10;6.43;;;;;;;;;;4986330;28;20194;-85
2022/12/06 06:17:44;;;;;;;12.30;7.47;;;;;;;;;;4959627;28;20187;-83
2022/12/06 06:20:12;;;;;;;11.07;6.47;;;;;;;;;;4990041;28;20198;-85
2022/12/06 06:22:39;;;;;;;10.03;6.33;;;;;;;;;;4993093;28;20297;-85
2022/12/06 06:25:06;;;;;;;10.53;6.17;;;;;;;;;;4994188;28;20189;-85
2022/12/06 06:27:33;;;;;;;15.67;6.77;;;;;;;;;;4974776;28;20238;-79
2022/12/06 06:29:59;;;;;;;11.63;6.57;;;;;;;;;;4991079;28;20190;-79
2022/12/06 06:32:25;;;;;;;11.50;6.70;;;;;;;;;;4994681;28;20193;-80
2022/12/06 06:34:51;;;;;;;11.10;6.50;;;;;;;;;;4978639;28;20185;-79
2022/12/06 06:37:17;;;;;;;14.23;6.50;;;;;;;;;;4994982;28;20205;-79
2022/12/06 06:39:43;;;;;;;12.93;7.20;;;;;;;;;;4996014;28;20183;-79
2022/12/06 06:42:09;;;;;;;12.00;6.83;;;;;;;;;;4994693;28;20241;-79
2022/12/06 06:44:35;;;;;;;12.67;6.67;;;;;;;;;;4978535;28;20189;-80
2022/12/06 06:47:01;;;;;;;13.40;7.10;;;;;;;;;;4993916;28;20197;-79
2022/12/06 06:49:27;;;;;;;12.13;7.00;;;;;;;;;;4978258;28;20205;-79
2022/12/06 06:51:53;;;;;;;10.27;6.67;;;;;;;;;;4994242;28;20278;-79
2022/12/06 06:54:19;;;;;;;12.27;6.90;;;;;;;;;;4972249;28;20209;-80
2022/12/06 06:56:45;;;;;;;8.83;6.23;;;;;;;;;;4994881;28;20186;-79
2022/12/06 06:59:11;;;;;;;12.83;7.00;;;;;;;;;;5009228;28;20182;-79
2022/12/06 07:01:37;;;;;;;13.57;7.00;;;;;;;;;;4975978;28;20185;-80
2022/12/06 07:04:03;;;;;;;10.87;7.67;;;;;;;;;;4992976;28;20184;-80
2022/12/06 07:06:29;;;;;;;11.87;7.47;;;;;;;;;;4994254;28;20248;-80
2022/12/06 07:08:55;;;;;;;19.23;8.93;;;;;;;;;;4975140;28;20313;-79
2022/12/06 07:11:22;;;;;;;11.20;6.67;;;;;;;;;;4977450;28;20184;-80
2022/12/06 07:13:48;;;;;;;8.23;6.33;;;;;;;;;;4992256;28;20280;-80
2022/12/06 07:16:15;;;;;;;12.50;6.60;;;;;;;;;;4989469;28;20378;-80
2022/12/06 07:18:42;;;;;;;15.03;8.27;;;;;;;;;;4990894;28;20286;-84
2022/12/06 07:21:10;;;;;;;11.17;7.20;;;;;;;;;;4991703;28;20196;-85
2022/12/06 07:23:36;;;;;;;14.57;9.00;;;;;;;;;;4990743;28;20237;-84
2022/12/06 07:26:19;;;;;;;13.77;8.47;;;;;;;;;;4993384;28;20189;-85
2022/12/06 07:28:46;;;;;;;15.13;8.20;;;;;;;;;;4990783;28;20193;-85
2022/12/06 07:31:12;;;;;;;14.27;8.70;;;;;;;;;;4975773;28;20190;-85
2022/12/06 07:33:38;;;;;;;14.83;7.40;;;;;;;;;;4991652;28;20201;-78
2022/12/06 07:36:04;;;;;;;13.33;7.57;;;;;;;;;;4991488;28;20269;-80
2022/12/06 07:38:30;;;;;;;12.63;7.23;;;;;;;;;;4989014;28;20194;-81
2022/12/06 07:44:59;;;;;;;13.60;7.17;;;;;;;;;;4991002;28;20190;-78
2022/12/06 07:46:39;;;;;;;18.20;7.77;;;;;;;;;;4994275;28;20200;-78
2022/12/06 07:49:05;;;;;;;13.53;7.23;;;;;;;;;;4973794;28;20194;-78
2022/12/06 07:51:34;;;;;;;14.37;7.57;;;;;;;;;;4975721;28;20186;-81
2022/12/06 07:54:00;;;;;;;12.53;7.20;;;;;;;;;;4993584;28;20186;-82
2022/12/06 07:56:27;;;;;;;16.37;7.23;;;;;;;;;;4993178;28;20182;-81
2022/12/06 07:58:53;;;;;;;14.97;7.23;;;;;;;;;;4990140;28;20193;-81
2022/12/06 08:01:19;;;;;;;11.40;7.63;;;;;;;;;;4992915;28;20189;-81
2022/12/06 08:03:45;;;;;;;11.37;7.30;;;;;;;;;;4976640;28;20260;-81
2022/12/06 08:06:11;;;;;;;11.40;6.70;;;;;;;;;;4994228;28;20206;-81
2022/12/06 08:08:38;;;;;;;9.87;7.17;;;;;;;;;;4974278;28;20183;-81
2022/12/06 08:11:06;;;;;;;13.40;7.30;;;;;;;;;;4983664;28;20186;-82
2022/12/06 08:13:32;;;;;;;11.27;7.00;;;;;;;;;;4993175;28;20199;-80
2022/12/06 08:15:58;;;;;;;11.17;7.30;;;;;;;;;;4981203;28;20237;-80
2022/12/06 08:18:25;;;;;;;12.43;6.93;;;;;;;;;;5007039;28;20277;-79
2022/12/06 08:20:54;;;;;;;12.60;7.03;;;;;;;;;;4989435;28;20189;-79
2022/12/06 08:23:20;;;;;;;12.97;7.43;;;;;;;;;;4992488;28;20217;-80
2022/12/06 08:25:46;;;;;;;10.70;7.10;;;;;;;;;;4993144;28;20189;-80
2022/12/06 08:28:12;;;;;;;11.03;7.40;;;;;;;;;;4976955;28;20186;-80
2022/12/06 08:30:39;;;;;;;16.10;7.40;;;;;;;;;;4992737;28;20186;-80
2022/12/06 08:33:05;;;;;;;14.33;6.70;;;;;;;;;;4992728;28;20253;-80
2022/12/06 08:35:31;;;;;;;13.43;8.40;;;;;;;;;;4985809;28;20282;-80
2022/12/06 08:37:57;;;;;;;10.00;6.73;;;;;;;;;;4995126;28;20244;-80
2022/12/06 08:40:23;;;;;;;8.10;6.80;;;;;;;;;;4996165;28;20185;-81
2022/12/06 08:42:49;;;;;;;8.60;6.83;;;;;;;;;;4979257;28;20237;-81
2022/12/06 08:45:15;;;;;;;11.73;8.10;;;;;;;;;;4995603;28;20186;-81
2022/12/06 08:47:41;;;;;;;11.43;7.57;;;;;;;;;;4973447;28;20186;-81
2022/12/06 08:50:07;;;;;;;10.97;8.33;;;;;;;;;;4975037;28;20201;-81
2022/12/06 08:52:33;;;;;;;9.93;7.17;;;;;;;;;;4996170;28;20222;-81
2022/12/06 08:54:59;;;;;;;11.60;8.50;;;;;;;;;;4980066;28;20198;-81
2022/12/06 08:57:25;;;;;;;10.53;7.37;;;;;;;;;;4990476;28;20226;-78
2022/12/06 08:59:51;;;;;;;9.37;6.97;;;;;;;;;;4996826;28;20240;-78
2022/12/06 09:02:17;;;;;;;7.73;5.60;;;;;;;;;;4979936;28;20228;-79
2022/12/06 09:04:43;;;;;;;5.37;4.07;;;;;;;;;;4980555;28;20185;-79
2022/12/06 09:07:09;;;;;;;4.30;3.67;;;;;;;;;;4980403;28;20179;-79
2022/12/06 09:09:35;;;;;;;6.07;4.00;;;;;;;;;;4977171;28;20197;-79
2022/12/06 09:12:01;;;;;;;7.40;4.00;;;;;;;;;;4971731;28;20197;-79
2022/12/06 09:14:27;;;;;;;4.97;3.77;;;;;;;;;;4993494;28;20186;-79
2022/12/06 09:16:53;;;;;;;4.40;3.07;;;;;;;;;;4975043;28;20242;-79
2022/12/06 09:19:19;;;;;;;6.20;2.97;;;;;;;;;;4976211;28;20203;-79
2022/12/06 09:21:45;;;;;;;4.67;2.80;;;;;;;;;;4984434;28;20193;-79
2022/12/06 09:24:12;;;;;;;5.17;2.53;;;;;;;;;;4996737;28;20213;-79
2022/12/06 09:26:38;;;;;;;3.33;2.60;;;;;;;;;;4996039;28;20193;-80
2022/12/06 09:29:04;;;;;;;3.77;2.80;;;;;;;;;;4979702;28;20194;-80
2022/12/06 09:31:30;;;;;;;5.63;2.93;;;;;;;;;;4979178;28;20252;-81
2022/12/06 09:33:56;;;;;;;4.70;2.90;;;;;;;;;;4996133;28;20182;-81
2022/12/06 09:36:30;;;;;;;4.03;2.83;;;;;;;;;;4993127;28;20190;-81
2022/12/06 09:39:01;;;;;;;2.47;2.27;;;;;;;;;;4979645;28;20186;-81
2022/12/06 09:41:47;;;;;;;4.97;2.67;;;;;;;;;;4994406;28;20206;-82
2022/12/06 09:44:23;;;;;;;5.07;2.57;;;;;;;;;;4994615;28;20182;-81
2022/12/06 09:46:57;;;;;;;3.13;2.40;;;;;;;;;;4977681;28;20171;-80
2022/12/06 09:49:26;;;;;;;6.80;2.67;;;;;;;;;;4993020;28;20365;-80
2022/12/06 09:52:11;;;;;;;4.00;2.40;;;;;;;;;;4990248;28;20305;-80
2022/12/06 09:54:40;;;;;;;4.13;2.33;;;;;;;;;;4991930;28;20182;-79
2022/12/06 09:57:27;;;;;;;3.20;2.37;;;;;;;;;;4995915;28;20206;-79
2022/12/06 10:00:09;;;;;;;2.60;1.90;;;;;;;;;;4983226;28;20189;-80
2022/12/06 10:02:54;;;;;;;3.50;2.03;;;;;;;;;;4994995;28;20214;-80
2022/12/06 10:05:36;;;;;;;2.67;2.00;;;;;;;;;;4994931;28;20178;-88
2022/12/06 10:08:12;;;;;;;2.43;2.20;;;;;;;;;;4979901;28;21637;-87
2022/12/06 10:10:38;;;;;;;3.60;1.97;;;;;;;;;;4994780;28;20178;-87
2022/12/06 10:13:10;;;;;;;3.77;2.27;;;;;;;;;;4982259;28;20186;-87
2022/12/06 10:15:36;;;;;;;4.23;2.37;;;;;;;;;;4976022;28;20238;-86
2022/12/06 10:18:14;;;;;;;4.50;2.20;;;;;;;;;;4991712;28;20274;-87
2022/12/06 10:20:56;;;;;;;3.07;2.17;;;;;;;;;;4996134;28;20189;-82
2022/12/06 10:23:22;;;;;;;3.00;1.80;;;;;;;;;;4990797;28;20225;-82
2022/12/06 10:26:05;;;;;;;3.33;2.10;;;;;;;;;;4978356;28;20194;-82
2022/12/06 10:28:31;;;;;;;4.83;2.20;;;;;;;;;;4994402;28;20185;-82
2022/12/06 10:31:00;;;;;;;4.20;2.00;;;;;;;;;;4994566;28;20178;-82
2022/12/06 10:33:37;;;;;;;3.93;1.97;;;;;;;;;;4994648;28;20281;-82
2022/12/06 10:36:05;;;;;;;3.60;2.10;;;;;;;;;;4991528;28;20269;-82
2022/12/06 10:38:43;;;;;;;3.93;1.87;;;;;;;;;;4984588;28;20216;-82
2022/12/06 10:41:09;;;;;;;2.80;1.87;;;;;;;;;;4994605;28;20181;-82
2022/12/06 10:43:41;;;;;;;2.93;1.80;;;;;;;;;;4995284;28;20217;-82
2022/12/06 10:49:11;;;;;;;3.60;1.87;;;;;;;;;;4978357;28;20285;-83
2022/12/06 10:51:46;;;;;;;2.37;1.80;;;;;;;;;;4994724;28;20174;-83
2022/12/06 10:54:28;;;;;;;3.87;1.93;;;;;;;;;;5009699;28;20197;-88
2022/12/06 10:56:56;;;;;;;4.53;2.00;;;;;;;;;;4993702;28;20244;-87
2022/12/06 10:59:27;;;;;;;4.90;1.90;;;;;;;;;;4991257;28;20178;-87
2022/12/06 11:01:57;;;;;;;3.60;1.90;;;;;;;;;;4993906;28;20202;-87
2022/12/06 11:04:25;;;;;;;2.90;1.70;;;;;;;;;;4994143;28;20185;-87
2022/12/06 11:07:10;;;;;;;3.60;1.90;;;;;;;;;;4994472;28;20201;-88
2022/12/06 11:09:40;;;;;;;2.17;1.70;;;;;;;;;;4995310;28;20192;-87
2022/12/06 11:12:22;;;;;;;4.03;1.70;;;;;;;;;;4994122;28;20182;-82
2022/12/06 11:14:50;;;;;;;3.73;2.27;;;;;;;;;;4994359;28;20208;-82
2022/12/06 11:17:19;;;;;;;3.30;1.70;;;;;;;;;;4994171;28;20233;-82
2022/12/06 11:19:49;;;;;;;2.80;1.73;;;;;;;;;;4994219;28;20181;-82
2022/12/06 11:22:24;;;;;;;4.43;1.80;;;;;;;;;;4995154;28;20197;-82
2022/12/06 11:24:54;;;;;;;3.47;1.77;;;;;;;;;;4993596;28;20186;-82
2022/12/06 11:27:26;;;;;;;5.20;1.87;;;;;;;;;;4994217;28;20170;-87
2022/12/06 11:29:52;;;;;;;3.57;1.77;;;;;;;;;;4994277;28;20178;-87
2022/12/06 11:32:18;;;;;;;3.93;1.83;;;;;;;;;;4994143;28;20197;-87
2022/12/06 11:34:56;;;;;;;11.73;6.57;;;;;;;;;;4973106;28;20179;-87
2022/12/06 11:37:30;;;;;;;30.03;16.10;;;;;;;;;;4976164;28;20183;-87
2022/12/06 11:40:01;;;;;;;40.77;24.17;;;;;;;;;;4990916;28;20221;-87
2022/12/06 11:42:27;;;;;;;28.10;16.43;;;;;;;;;;4995435;28;20210;-87
2022/12/06 11:44:56;;;;;;;6.07;3.23;;;;;;;;;;4994310;28;20240;-81
2022/12/06 11:47:22;;;;;;;5.67;3.03;;;;;;;;;;4994206;28;20278;-81
2022/12/06 11:49:49;;;;;;;5.70;3.70;;;;;;;;;;4977841;28;20193;-81
2022/12/06 11:52:25;;;;;;;5.87;2.60;;;;;;;;;;4993225;28;20182;-81
2022/12/06 11:54:54;;;;;;;4.10;2.80;;;;;;;;;;4992579;28;20239;-81
2022/12/06 11:57:22;;;;;;;5.63;2.70;;;;;;;;;;4992787;28;20186;-80
2022/12/06 12:00:06;;;;;;;4.23;2.60;;;;;;;;;;4991629;28;20182;-81
2022/12/06 12:02:32;;;;;;;6.73;4.43;;;;;;;;;;4983833;28;20209;-80
2022/12/06 12:05:22;;;;;;;6.03;4.17;;;;;;;;;;4993801;28;20196;-79
2022/12/06 12:07:50;;;;;;;5.63;3.20;;;;;;;;;;4986560;28;20252;-79
2022/12/06 12:10:19;;;;;;;5.60;2.97;;;;;;;;;;4993429;28;20206;-79
2022/12/06 12:15:32;;;;;;;6.50;2.53;;;;;;;;;;4998476;28;20240;-79
2022/12/06 12:18:00;;;;;;;6.33;2.67;;;;;;;;;;4997560;28;20186;-85
2022/12/06 12:20:31;;;;;;;7.60;2.73;;;;;;;;;;4997872;28;20189;-86
2022/12/06 12:23:02;;;;;;;5.87;2.40;;;;;;;;;;4997778;28;20206;-85
2022/12/06 12:25:30;;;;;;;4.47;2.10;;;;;;;;;;4997236;28;20174;-85
2022/12/06 12:27:57;;;;;;;3.43;2.10;;;;;;;;;;4996236;28;20282;-85
2022/12/06 12:30:23;;;;;;;6.33;2.80;;;;;;;;;;4997036;28;20293;-85
2022/12/06 12:33:09;;;;;;;7.37;2.30;;;;;;;;;;4997603;28;20193;-85
2022/12/06 12:35:37;;;;;;;6.57;2.10;;;;;;;;;;4983129;28;20308;-85
2022/12/06 12:38:09;;;;;;;4.27;2.10;;;;;;;;;;4997199;28;20201;-85
2022/12/06 12:40:37;;;;;;;4.30;1.80;;;;;;;;;;4996792;28;20178;-85
2022/12/06 12:43:08;;;;;;;4.23;2.13;;;;;;;;;;4997206;28;20273;-85
2022/12/06 12:45:34;;;;;;;5.87;2.50;;;;;;;;;;4997778;28;20185;-85
2022/12/06 12:48:01;;;;;;;3.50;2.40;;;;;;;;;;4997365;28;20205;-85
2022/12/06 12:50:28;;;;;;;4.83;2.73;;;;;;;;;;4997169;28;20186;-84
2022/12/06 12:52:54;;;;;;;4.47;2.43;;;;;;;;;;4996381;28;20200;-85
2022/12/06 12:55:20;;;;;;;13.10;7.57;;;;;;;;;;4996600;28;20209;-84
2022/12/06 12:57:48;;;;;;;14.83;7.57;;;;;;;;;;4977323;28;20191;-84
2022/12/06 13:00:19;;;;;;;13.77;7.37;;;;;;;;;;4993801;28;20183;-84
2022/12/06 13:02:47;;;;;;;51.43;23.13;;;;;;;;;;4996215;28;20209;-85
2022/12/06 13:05:18;;;;;;;20.70;10.37;;;;;;;;;;4996179;28;20174;-84
2022/12/06 13:07:44;;;;;;;38.93;18.43;;;;;;;;;;4996395;28;20190;-80
2022/12/06 13:10:30;;;;;;;47.00;22.17;;;;;;;;;;4996425;28;20266;-80
2022/12/06 13:12:59;;;;;;;18.57;8.33;;;;;;;;;;4995982;28;20236;-79
2022/12/06 13:15:30;;;;;;;24.23;11.20;;;;;;;;;;4996045;28;20276;-88
2022/12/06 13:18:00;;;;;;;20.50;8.47;;;;;;;;;;4995733;28;20190;-87
2022/12/06 13:20:27;;;;;;;43.30;21.27;;;;;;;;;;5001861;28;20185;-86
2022/12/06 13:22:55;;;;;;;51.70;24.50;;;;;;;;;;5004115;28;20220;-86
2022/12/06 13:25:21;;;;;;;7.43;4.23;;;;;;;;;;4977552;28;20281;-84
2022/12/06 13:27:49;;;;;;;20.77;9.97;;;;;;;;;;4986639;28;20267;-83
2022/12/06 13:30:20;;;;;;;48.37;25.37;;;;;;;;;;5015744;28;20196;-84
2022/12/06 13:32:54;;;;;;;21.33;10.17;;;;;;;;;;4990430;28;20174;-83
2022/12/06 13:35:23;;;;;;;23.00;13.10;;;;;;;;;;4996603;28;20182;-84
2022/12/06 13:37:53;;;;;;;43.97;23.30;;;;;;;;;;4993284;28;20281;-84
2022/12/06 13:40:32;;;;;;;16.80;9.37;;;;;;;;;;4989129;28;20241;-85
2022/12/06 13:42:58;;;;;;;10.03;7.07;;;;;;;;;;4976748;28;20219;-87
2022/12/06 13:45:44;;;;;;;15.50;9.47;;;;;;;;;;4980836;28;20271;-87
2022/12/06 13:48:25;;;;;;;9.53;4.53;;;;;;;;;;5015455;28;20319;-87
2022/12/06 13:50:54;;;;;;;8.80;4.80;;;;;;;;;;5009329;28;20174;-86
2022/12/06 13:53:21;;;;;;;4.77;2.90;;;;;;;;;;4995173;28;20196;-85
2022/12/06 13:56:06;;;;;;;7.77;5.73;;;;;;;;;;4982297;28;20193;-88
2022/12/06 13:58:32;;;;;;;10.97;8.70;;;;;;;;;;4987835;28;20197;-85
2022/12/06 14:00:58;;;;;;;7.90;7.03;;;;;;;;;;4995756;28;20182;-84
2022/12/06 14:03:24;;;;;;;10.20;7.07;;;;;;;;;;4977319;28;20221;-84
2022/12/06 14:06:01;;;;;;;9.40;7.33;;;;;;;;;;4996067;28;20187;-84
2022/12/06 14:08:37;;;;;;;6.77;5.50;;;;;;;;;;4996137;28;20178;-84
2022/12/06 14:11:21;;;;;;;9.20;7.10;;;;;;;;;;4995817;28;20196;-84
2022/12/06 14:13:49;;;;;;;4.80;3.33;;;;;;;;;;4995640;28;20190;-80
2022/12/06 14:16:21;;;;;;;10.83;4.03;;;;;;;;;;4994432;28;20241;-80
2022/12/06 14:18:48;;;;;;;6.03;3.80;;;;;;;;;;4995530;28;20186;-81
2022/12/06 14:21:29;;;;;;;6.57;4.03;;;;;;;;;;4996348;28;20170;-81
2022/12/06 14:23:55;;;;;;;5.53;3.50;;;;;;;;;;4994782;28;20210;-80
2022/12/06 14:26:23;;;;;;;8.20;5.70;;;;;;;;;;4996013;28;20218;-80
2022/12/06 14:28:50;;;;;;;6.70;3.47;;;;;;;;;;4995055;28;20206;-80
2022/12/06 14:31:21;;;;;;;7.10;3.80;;;;;;;;;;4998280;23;20333;-81
2022/12/06 14:33:47;;;;;;;6.67;3.93;;;;;;;;;;4989476;28;20261;-83
2022/12/06 14:36:19;;;;;;;7.60;3.93;;;;;;;;;;4989549;28;20197;-83
2022/12/06 14:38:50;;;;;;;4.97;3.40;;;;;;;;;;4989769;28;20182;-83
2022/12/06 14:44:14;;;;;;;7.20;3.73;;;;;;;;;;4992143;28;20217;-83
2022/12/06 14:46:41;;;;;;;6.23;3.70;;;;;;;;;;4994622;28;20240;-83
2022/12/06 14:51:54;;;;;;;6.73;3.70;;;;;;;;;;4994793;28;20192;-83
2022/12/06 14:54:31;;;;;;;4.27;3.37;;;;;;;;;;4961878;28;20187;-83
2022/12/06 14:56:57;;;;;;;5.17;3.47;;;;;;;;;;4973100;28;20195;-82
2022/12/06 14:59:25;;;;;;;8.20;3.77;;;;;;;;;;4976416;28;20210;-83
2022/12/06 15:01:55;;;;;;;6.63;3.67;;;;;;;;;;4973640;28;20213;-82
2022/12/06 15:04:47;;;;;;;5.50;3.40;;;;;;;;;;4973326;28;20187;-81
2022/12/06 15:07:32;;;;;;;6.83;3.70;;;;;;;;;;4979085;28;20249;-80
2022/12/06 15:10:08;;;;;;;7.93;3.60;;;;;;;;;;4972992;28;20186;-81
2022/12/06 15:15:38;;;;;;;8.63;3.80;;;;;;;;;;4975913;28;20241;-81
2022/12/06 15:18:11;;;;;;;7.70;3.73;;;;;;;;;;4984912;28;20179;-80
2022/12/06 15:20:37;;;;;;;5.73;3.87;;;;;;;;;;4975541;28;20264;-83